sensor_id;sensor_type;location;lat;lon;timestamp;pressure;altitude;pressure_sealevel;temperature;humidity
6132;BME280;3097;42.692;23.278;2022-12-17T00:00:22;94779.53;;;6.75;100.00
6132;BME280;3097;42.692;23.278;2022-12-17T00:03:08;94749.00;;;6.60;100.00
6132;BME280;3097;42.692;23.278;2022-12-17T00:05:52;94768.50;;;6.54;100.00
6132;BME280;3097;42.692;23.278;2022-12-17T00:08:36;94776.97;;;6.68;100.00
6132;BME280;3097;42.692;23.278;2022-12-17T00:11:20;94781.91;;;6.63;100.00
6132;BME280;3097;42.692;23.278;2022-12-17T00:14:04;94785.06;;;6.65;100.00
6132;BME280;3097;42.692;23.278;2022-12-17T00:16:48;94774.59;;;6.73;100.00
6132;BME280;3097;42.692;23.278;2022-12-17T00:19:32;94776.78;;;6.43;100.00
6132;BME280;3097;42.692;23.278;2022-12-17T00:22:16;94789.41;;;6.45;100.00
6132;BME280;3097;42.692;23.278;2022-12-17T00:25:00;94775.81;;;6.44;100.00
6132;BME280;3097;42.692;23.278;2022-12-17T00:27:44;94780.91;;;6.57;100.00
6132;BME280;3097;42.692;23.278;2022-12-17T00:30:28;94758.88;;;6.37;100.00
6132;BME280;3097;42.692;23.278;2022-12-17T00:33:12;94783.09;;;6.67;100.00
6132;BME280;3097;42.692;23.278;2022-12-17T00:35:56;94775.19;;;6.62;100.00
6132;BME280;3097;42.692;23.278;2022-12-17T00:38:40;94759.28;;;6.53;100.00
6132;BME280;3097;42.692;23.278;2022-12-17T00:41:24;94782.50;;;6.45;100.00
6132;BME280;3097;42.692;23.278;2022-12-17T00:44:08;94769.69;;;6.32;100.00
6132;BME280;3097;42.692;23.278;2022-12-17T00:46:52;94772.47;;;6.44;100.00
6132;BME280;3097;42.692;23.278;2022-12-17T00:49:36;94757.50;;;6.41;100.00
6132;BME280;3097;42.692;23.278;2022-12-17T00:52:40;94767.72;;;6.41;100.00
6132;BME280;3097;42.692;23.278;2022-12-17T00:55:23;94760.66;;;6.36;100.00
6132;BME280;3097;42.692;23.278;2022-12-17T00:58:08;94763.81;;;6.38;100.00
6132;BME280;3097;42.692;23.278;2022-12-17T01:00:57;94757.50;;;6.34;100.00
6132;BME280;3097;42.692;23.278;2022-12-17T01:03:41;94756.31;;;6.37;100.00
6132;BME280;3097;42.692;23.278;2022-12-17T01:06:25;94763.22;;;6.30;100.00
6132;BME280;3097;42.692;23.278;2022-12-17T01:09:09;94776.19;;;6.41;100.00
6132;BME280;3097;42.692;23.278;2022-12-17T01:11:53;94758.09;;;6.30;100.00
6132;BME280;3097;42.692;23.278;2022-12-17T01:14:36;94785.28;;;6.37;100.00
6132;BME280;3097;42.692;23.278;2022-12-17T01:17:20;94769.13;;;6.43;100.00
6132;BME280;3097;42.692;23.278;2022-12-17T01:20:05;94783.50;;;6.44;100.00
6132;BME280;3097;42.692;23.278;2022-12-17T01:22:49;94762.22;;;6.50;100.00
6132;BME280;3097;42.692;23.278;2022-12-17T01:25:33;94768.16;;;6.38;100.00
6132;BME280;3097;42.692;23.278;2022-12-17T01:28:22;94768.94;;;6.38;100.00
6132;BME280;3097;42.692;23.278;2022-12-17T01:31:06;94758.09;;;6.43;100.00
6132;BME280;3097;42.692;23.278;2022-12-17T01:33:50;94768.91;;;6.51;100.00
6132;BME280;3097;42.692;23.278;2022-12-17T01:36:34;94772.25;;;6.58;100.00
6132;BME280;3097;42.692;23.278;2022-12-17T01:39:18;94760.81;;;6.74;100.00
6132;BME280;3097;42.692;23.278;2022-12-17T01:42:02;94766.91;;;6.80;100.00
6132;BME280;3097;42.692;23.278;2022-12-17T01:44:53;94776.00;;;6.76;100.00
6132;BME280;3097;42.692;23.278;2022-12-17T01:47:43;94764.53;;;6.85;100.00
6132;BME280;3097;42.692;23.278;2022-12-17T01:50:30;94748.38;;;6.91;100.00
6132;BME280;3097;42.692;23.278;2022-12-17T01:53:17;94744.41;;;6.88;100.00
6132;BME280;3097;42.692;23.278;2022-12-17T01:56:05;94767.69;;;6.80;100.00
6132;BME280;3097;42.692;23.278;2022-12-17T01:58:49;94753.94;;;6.68;100.00
6132;BME280;3097;42.692;23.278;2022-12-17T02:01:33;94742.69;;;6.76;100.00
6132;BME280;3097;42.692;23.278;2022-12-17T02:04:17;94748.81;;;6.68;100.00
6132;BME280;3097;42.692;23.278;2022-12-17T02:07:16;94752.53;;;6.72;100.00
6132;BME280;3097;42.692;23.278;2022-12-17T02:13:11;94747.38;;;6.79;100.00
6132;BME280;3097;42.692;23.278;2022-12-17T02:19:56;94754.91;;;6.74;100.00
6132;BME280;3097;42.692;23.278;2022-12-17T02:22:21;94749.16;;;6.85;100.00
6132;BME280;3097;42.692;23.278;2022-12-17T02:25:19;94724.75;;;6.82;100.00
6132;BME280;3097;42.692;23.278;2022-12-17T02:28:05;94761.16;;;6.84;100.00
6132;BME280;3097;42.692;23.278;2022-12-17T02:30:49;94737.53;;;6.82;100.00
6132;BME280;3097;42.692;23.278;2022-12-17T02:33:33;94722.59;;;6.73;100.00
6132;BME280;3097;42.692;23.278;2022-12-17T02:36:17;94754.13;;;6.73;100.00
6132;BME280;3097;42.692;23.278;2022-12-17T02:39:01;94719.44;;;6.71;100.00
6132;BME280;3097;42.692;23.278;2022-12-17T02:41:50;94739.13;;;6.77;100.00
6132;BME280;3097;42.692;23.278;2022-12-17T02:44:37;94707.38;;;6.78;100.00
6132;BME280;3097;42.692;23.278;2022-12-17T02:47:23;94712.94;;;6.75;100.00
6132;BME280;3097;42.692;23.278;2022-12-17T02:50:09;94702.63;;;6.88;100.00
6132;BME280;3097;42.692;23.278;2022-12-17T02:52:54;94714.06;;;6.85;100.00
6132;BME280;3097;42.692;23.278;2022-12-17T02:55:41;94680.44;;;6.69;100.00
6132;BME280;3097;42.692;23.278;2022-12-17T02:58:25;94698.75;;;6.72;100.00
6132;BME280;3097;42.692;23.278;2022-12-17T03:03:37;94683.97;;;6.74;100.00
6132;BME280;3097;42.692;23.278;2022-12-17T03:06:21;94630.63;;;6.58;100.00
6132;BME280;3097;42.692;23.278;2022-12-17T03:09:05;94696.97;;;6.73;100.00
6132;BME280;3097;42.692;23.278;2022-12-17T03:11:49;94686.75;;;6.66;100.00
6132;BME280;3097;42.692;23.278;2022-12-17T03:14:33;94678.28;;;6.66;100.00
6132;BME280;3097;42.692;23.278;2022-12-17T03:17:17;94664.13;;;6.56;100.00
6132;BME280;3097;42.692;23.278;2022-12-17T03:20:02;94669.66;;;6.53;100.00
6132;BME280;3097;42.692;23.278;2022-12-17T03:22:46;94682.00;;;6.76;100.00
6132;BME280;3097;42.692;23.278;2022-12-17T03:25:30;94677.28;;;6.67;100.00
6132;BME280;3097;42.692;23.278;2022-12-17T03:28:14;94684.56;;;6.76;100.00
6132;BME280;3097;42.692;23.278;2022-12-17T03:30:58;94670.34;;;6.80;100.00
6132;BME280;3097;42.692;23.278;2022-12-17T03:33:43;94656.91;;;6.85;100.00
6132;BME280;3097;42.692;23.278;2022-12-17T03:36:28;94674.25;;;6.89;100.00
6132;BME280;3097;42.692;23.278;2022-12-17T03:39:12;94686.81;;;7.04;100.00
6132;BME280;3097;42.692;23.278;2022-12-17T03:41:56;94689.97;;;7.06;100.00
6132;BME280;3097;42.692;23.278;2022-12-17T03:44:40;94662.00;;;6.98;100.00
6132;BME280;3097;42.692;23.278;2022-12-17T03:47:24;94677.69;;;7.15;100.00
6132;BME280;3097;42.692;23.278;2022-12-17T03:50:09;94675.94;;;7.09;100.00
6132;BME280;3097;42.692;23.278;2022-12-17T03:52:53;94688.31;;;7.18;100.00
6132;BME280;3097;42.692;23.278;2022-12-17T03:55:37;94650.53;;;7.00;100.00
6132;BME280;3097;42.692;23.278;2022-12-17T03:58:20;94675.88;;;7.22;100.00
6132;BME280;3097;42.692;23.278;2022-12-17T04:01:04;94687.50;;;7.24;100.00
6132;BME280;3097;42.692;23.278;2022-12-17T04:03:48;94664.06;;;7.21;100.00
6132;BME280;3097;42.692;23.278;2022-12-17T04:06:32;94690.66;;;7.26;100.00
6132;BME280;3097;42.692;23.278;2022-12-17T04:09:16;94695.34;;;7.29;100.00
6132;BME280;3097;42.692;23.278;2022-12-17T04:12:00;94650.47;;;7.20;100.00
6132;BME280;3097;42.692;23.278;2022-12-17T04:14:44;94701.72;;;7.20;100.00
6132;BME280;3097;42.692;23.278;2022-12-17T04:17:28;94682.38;;;7.24;100.00
6132;BME280;3097;42.692;23.278;2022-12-17T04:20:12;94708.19;;;7.29;100.00
6132;BME280;3097;42.692;23.278;2022-12-17T04:22:55;94657.78;;;7.17;100.00
6132;BME280;3097;42.692;23.278;2022-12-17T04:25:39;94674.50;;;7.26;100.00
6132;BME280;3097;42.692;23.278;2022-12-17T04:28:23;94700.09;;;7.32;100.00
6132;BME280;3097;42.692;23.278;2022-12-17T04:31:07;94706.75;;;7.40;100.00
6132;BME280;3097;42.692;23.278;2022-12-17T04:33:51;94683.09;;;7.38;100.00
6132;BME280;3097;42.692;23.278;2022-12-17T04:36:35;94684.69;;;7.32;100.00
6132;BME280;3097;42.692;23.278;2022-12-17T04:39:19;94686.44;;;7.38;100.00
6132;BME280;3097;42.692;23.278;2022-12-17T04:42:03;94667.44;;;7.21;100.00
6132;BME280;3097;42.692;23.278;2022-12-17T04:44:46;94706.41;;;7.36;100.00
6132;BME280;3097;42.692;23.278;2022-12-17T04:47:31;94721.97;;;7.35;100.00
6132;BME280;3097;42.692;23.278;2022-12-17T04:50:25;94719.69;;;7.20;100.00
6132;BME280;3097;42.692;23.278;2022-12-17T04:53:09;94716.13;;;7.21;100.00
6132;BME280;3097;42.692;23.278;2022-12-17T04:55:54;94713.13;;;7.24;100.00
6132;BME280;3097;42.692;23.278;2022-12-17T04:58:38;94736.97;;;7.31;100.00
6132;BME280;3097;42.692;23.278;2022-12-17T05:01:23;94743.09;;;7.30;100.00
6132;BME280;3097;42.692;23.278;2022-12-17T05:04:07;94751.97;;;7.34;100.00
6132;BME280;3097;42.692;23.278;2022-12-17T05:06:51;94740.88;;;7.41;100.00
6132;BME280;3097;42.692;23.278;2022-12-17T05:09:35;94767.16;;;7.36;100.00
6132;BME280;3097;42.692;23.278;2022-12-17T05:12:19;94743.03;;;7.44;100.00
6132;BME280;3097;42.692;23.278;2022-12-17T05:15:03;94759.41;;;7.43;100.00
6132;BME280;3097;42.692;23.278;2022-12-17T05:17:51;94753.06;;;7.45;100.00
6132;BME280;3097;42.692;23.278;2022-12-17T05:20:35;94763.34;;;7.45;100.00
6132;BME280;3097;42.692;23.278;2022-12-17T05:23:19;94749.56;;;7.39;100.00
6132;BME280;3097;42.692;23.278;2022-12-17T05:26:15;94746.56;;;7.49;100.00
6132;BME280;3097;42.692;23.278;2022-12-17T05:29:00;94747.75;;;7.47;100.00
6132;BME280;3097;42.692;23.278;2022-12-17T05:31:44;94734.31;;;7.51;100.00
6132;BME280;3097;42.692;23.278;2022-12-17T05:34:28;94763.31;;;7.52;100.00
6132;BME280;3097;42.692;23.278;2022-12-17T05:37:12;94733.56;;;7.44;100.00
6132;BME280;3097;42.692;23.278;2022-12-17T05:39:56;94777.13;;;7.51;100.00
6132;BME280;3097;42.692;23.278;2022-12-17T05:42:41;94743.28;;;7.35;100.00
6132;BME280;3097;42.692;23.278;2022-12-17T05:45:24;94741.03;;;7.46;100.00
6132;BME280;3097;42.692;23.278;2022-12-17T05:48:08;94754.84;;;7.51;100.00
6132;BME280;3097;42.692;23.278;2022-12-17T05:50:52;94731.53;;;7.53;100.00
6132;BME280;3097;42.692;23.278;2022-12-17T05:53:36;94744.59;;;7.51;100.00
6132;BME280;3097;42.692;23.278;2022-12-17T05:56:20;94682.66;;;7.10;100.00
6132;BME280;3097;42.692;23.278;2022-12-17T05:59:04;94762.66;;;7.63;100.00
6132;BME280;3097;42.692;23.278;2022-12-17T06:01:48;94750.00;;;7.68;100.00
6132;BME280;3097;42.692;23.278;2022-12-17T06:04:33;94721.56;;;7.38;100.00
6132;BME280;3097;42.692;23.278;2022-12-17T06:07:17;94762.28;;;7.66;100.00
6132;BME280;3097;42.692;23.278;2022-12-17T06:10:02;94765.44;;;7.61;100.00
6132;BME280;3097;42.692;23.278;2022-12-17T06:12:56;94804.28;;;7.65;100.00
6132;BME280;3097;42.692;23.278;2022-12-17T06:15:40;94780.22;;;7.66;100.00
6132;BME280;3097;42.692;23.278;2022-12-17T06:18:24;94774.25;;;7.72;100.00
6132;BME280;3097;42.692;23.278;2022-12-17T06:21:08;94777.78;;;7.77;100.00
6132;BME280;3097;42.692;23.278;2022-12-17T06:23:52;94805.06;;;7.72;100.00
6132;BME280;3097;42.692;23.278;2022-12-17T06:26:36;94792.59;;;7.75;100.00
6132;BME280;3097;42.692;23.278;2022-12-17T06:29:20;94783.56;;;7.66;100.00
6132;BME280;3097;42.692;23.278;2022-12-17T06:32:04;94789.84;;;7.70;100.00
6132;BME280;3097;42.692;23.278;2022-12-17T06:34:48;94815.41;;;7.97;100.00
6132;BME280;3097;42.692;23.278;2022-12-17T06:37:32;94812.94;;;8.08;100.00
6132;BME280;3097;42.692;23.278;2022-12-17T06:40:16;94814.59;;;7.96;100.00
6132;BME280;3097;42.692;23.278;2022-12-17T06:43:00;94831.50;;;8.10;100.00
6132;BME280;3097;42.692;23.278;2022-12-17T06:45:44;94818.03;;;8.15;100.00
6132;BME280;3097;42.692;23.278;2022-12-17T06:48:28;94819.56;;;8.23;100.00
6132;BME280;3097;42.692;23.278;2022-12-17T06:51:12;94812.03;;;8.34;100.00
6132;BME280;3097;42.692;23.278;2022-12-17T06:53:56;94821.25;;;8.42;100.00
6132;BME280;3097;42.692;23.278;2022-12-17T06:56:40;94852.13;;;8.60;100.00
6132;BME280;3097;42.692;23.278;2022-12-17T06:59:24;94883.16;;;8.59;100.00
6132;BME280;3097;42.692;23.278;2022-12-17T07:02:09;94915.81;;;8.83;100.00
6132;BME280;3097;42.692;23.278;2022-12-17T07:04:54;94952.09;;;9.24;100.00
6132;BME280;3097;42.692;23.278;2022-12-17T07:07:38;94909.25;;;9.55;100.00
6132;BME280;3097;42.692;23.278;2022-12-17T07:10:22;94879.94;;;9.74;100.00
6132;BME280;3097;42.692;23.278;2022-12-17T07:13:07;94891.47;;;9.90;100.00
6132;BME280;3097;42.692;23.278;2022-12-17T07:15:51;94902.09;;;10.12;100.00
6132;BME280;3097;42.692;23.278;2022-12-17T07:18:35;94947.44;;;10.31;100.00
6132;BME280;3097;42.692;23.278;2022-12-17T07:21:21;94932.88;;;10.55;100.00
6132;BME280;3097;42.692;23.278;2022-12-17T07:24:06;94899.72;;;10.70;100.00
6132;BME280;3097;42.692;23.278;2022-12-17T07:26:50;94876.91;;;10.97;100.00
6132;BME280;3097;42.692;23.278;2022-12-17T07:29:34;94853.78;;;10.90;100.00
6132;BME280;3097;42.692;23.278;2022-12-17T07:32:18;94873.66;;;11.01;100.00
6132;BME280;3097;42.692;23.278;2022-12-17T07:35:02;94872.44;;;11.04;100.00
6132;BME280;3097;42.692;23.278;2022-12-17T07:37:46;94864.09;;;10.90;100.00
6132;BME280;3097;42.692;23.278;2022-12-17T07:40:30;94871.09;;;10.90;100.00
6132;BME280;3097;42.692;23.278;2022-12-17T07:43:14;94844.38;;;10.84;100.00
6132;BME280;3097;42.692;23.278;2022-12-17T07:45:58;94831.16;;;10.92;100.00
6132;BME280;3097;42.692;23.278;2022-12-17T07:48:42;94834.06;;;10.84;100.00
6132;BME280;3097;42.692;23.278;2022-12-17T07:51:26;94794.25;;;10.92;100.00
6132;BME280;3097;42.692;23.278;2022-12-17T07:54:10;94813.66;;;10.94;100.00
6132;BME280;3097;42.692;23.278;2022-12-17T07:56:54;94782.16;;;11.04;100.00
6132;BME280;3097;42.692;23.278;2022-12-17T07:59:38;94774.50;;;11.20;100.00
6132;BME280;3097;42.692;23.278;2022-12-17T08:02:22;94802.81;;;11.55;100.00
6132;BME280;3097;42.692;23.278;2022-12-17T08:05:06;94816.94;;;11.76;100.00
6132;BME280;3097;42.692;23.278;2022-12-17T08:07:50;94827.47;;;11.86;100.00
6132;BME280;3097;42.692;23.278;2022-12-17T08:10:34;94832.56;;;12.10;100.00
6132;BME280;3097;42.692;23.278;2022-12-17T08:13:18;94846.06;;;12.28;100.00
6132;BME280;3097;42.692;23.278;2022-12-17T08:16:02;94860.34;;;12.48;100.00
6132;BME280;3097;42.692;23.278;2022-12-17T08:18:46;94860.06;;;12.61;100.00
6132;BME280;3097;42.692;23.278;2022-12-17T08:21:30;94886.06;;;12.54;100.00
6132;BME280;3097;42.692;23.278;2022-12-17T08:24:14;94887.75;;;12.32;100.00
6132;BME280;3097;42.692;23.278;2022-12-17T08:26:58;94879.28;;;12.36;100.00
6132;BME280;3097;42.692;23.278;2022-12-17T08:29:42;94858.19;;;12.28;100.00
6132;BME280;3097;42.692;23.278;2022-12-17T08:32:26;94859.06;;;12.33;100.00
6132;BME280;3097;42.692;23.278;2022-12-17T08:35:10;94860.72;;;12.11;100.00
6132;BME280;3097;42.692;23.278;2022-12-17T08:38:00;94873.09;;;12.09;100.00
6132;BME280;3097;42.692;23.278;2022-12-17T08:40:44;94871.84;;;12.12;100.00
6132;BME280;3097;42.692;23.278;2022-12-17T08:43:29;94896.41;;;12.26;100.00
6132;BME280;3097;42.692;23.278;2022-12-17T08:46:13;94912.97;;;12.70;100.00
6132;BME280;3097;42.692;23.278;2022-12-17T08:48:57;94913.84;;;12.92;100.00
6132;BME280;3097;42.692;23.278;2022-12-17T08:51:41;94894.41;;;13.06;100.00
6132;BME280;3097;42.692;23.278;2022-12-17T08:54:25;94911.81;;;13.11;99.80
6132;BME280;3097;42.692;23.278;2022-12-17T08:57:09;94882.56;;;12.77;100.00
6132;BME280;3097;42.692;23.278;2022-12-17T08:59:53;94901.28;;;13.01;100.00
6132;BME280;3097;42.692;23.278;2022-12-17T09:02:37;94901.47;;;13.11;100.00
6132;BME280;3097;42.692;23.278;2022-12-17T09:05:21;94918.91;;;13.15;100.00
6132;BME280;3097;42.692;23.278;2022-12-17T09:08:05;94918.59;;;13.45;100.00
6132;BME280;3097;42.692;23.278;2022-12-17T09:10:50;94917.91;;;13.72;100.00
6132;BME280;3097;42.692;23.278;2022-12-17T09:13:34;94923.91;;;13.77;100.00
6132;BME280;3097;42.692;23.278;2022-12-17T09:16:19;94945.56;;;13.88;100.00
6132;BME280;3097;42.692;23.278;2022-12-17T09:19:04;94927.84;;;13.80;100.00
6132;BME280;3097;42.692;23.278;2022-12-17T09:21:48;94952.22;;;14.01;100.00
6132;BME280;3097;42.692;23.278;2022-12-17T09:24:32;94954.56;;;14.02;100.00
6132;BME280;3097;42.692;23.278;2022-12-17T09:27:16;94980.50;;;14.02;100.00
6132;BME280;3097;42.692;23.278;2022-12-17T09:30:00;94994.41;;;13.96;99.80
6132;BME280;3097;42.692;23.278;2022-12-17T09:32:44;95019.78;;;13.94;99.76
6132;BME280;3097;42.692;23.278;2022-12-17T09:35:27;95043.56;;;13.91;97.51
6132;BME280;3097;42.692;23.278;2022-12-17T09:38:13;95041.91;;;13.85;96.90
6132;BME280;3097;42.692;23.278;2022-12-17T09:41:44;95026.09;;;13.65;96.32
6132;BME280;3097;42.692;23.278;2022-12-17T09:44:19;95032.59;;;13.67;93.56
6132;BME280;3097;42.692;23.278;2022-12-17T09:50:16;95038.88;;;13.54;94.47
6132;BME280;3097;42.692;23.278;2022-12-17T09:53:01;95016.03;;;13.35;95.21
6132;BME280;3097;42.692;23.278;2022-12-17T09:55:51;94996.16;;;13.40;91.46
6132;BME280;3097;42.692;23.278;2022-12-17T09:58:38;95002.38;;;13.39;90.95
6132;BME280;3097;42.692;23.278;2022-12-17T10:01:42;94950.13;;;13.26;90.69
6132;BME280;3097;42.692;23.278;2022-12-17T10:07:21;94965.34;;;12.77;96.24
6132;BME280;3097;42.692;23.278;2022-12-17T10:10:17;94981.25;;;12.86;96.37
6132;BME280;3097;42.692;23.278;2022-12-17T10:13:08;94996.03;;;12.73;97.96
6132;BME280;3097;42.692;23.278;2022-12-17T10:15:53;95011.91;;;12.77;98.40
6132;BME280;3097;42.692;23.278;2022-12-17T10:18:37;95033.91;;;12.79;98.22
6132;BME280;3097;42.692;23.278;2022-12-17T10:21:21;95037.50;;;12.78;98.75
6132;BME280;3097;42.692;23.278;2022-12-17T10:24:06;95047.69;;;12.68;98.70
6132;BME280;3097;42.692;23.278;2022-12-17T10:26:51;95043.97;;;12.64;99.82
6132;BME280;3097;42.692;23.278;2022-12-17T10:29:35;95036.28;;;12.41;100.00
6132;BME280;3097;42.692;23.278;2022-12-17T10:32:22;95039.56;;;12.36;100.00
6132;BME280;3097;42.692;23.278;2022-12-17T10:35:24;95019.31;;;12.45;100.00
6132;BME280;3097;42.692;23.278;2022-12-17T10:38:21;95016.72;;;12.33;100.00
6132;BME280;3097;42.692;23.278;2022-12-17T10:41:25;95018.00;;;12.19;100.00
6132;BME280;3097;42.692;23.278;2022-12-17T10:44:32;95009.81;;;12.11;100.00
6132;BME280;3097;42.692;23.278;2022-12-17T10:47:18;95021.16;;;11.98;100.00
6132;BME280;3097;42.692;23.278;2022-12-17T10:50:15;94993.75;;;11.97;100.00
6132;BME280;3097;42.692;23.278;2022-12-17T10:52:59;94959.63;;;11.83;100.00
6132;BME280;3097;42.692;23.278;2022-12-17T10:55:55;94968.28;;;12.00;100.00
6132;BME280;3097;42.692;23.278;2022-12-17T10:58:50;94947.59;;;12.00;100.00
6132;BME280;3097;42.692;23.278;2022-12-17T11:01:36;94944.19;;;12.12;100.00
6132;BME280;3097;42.692;23.278;2022-12-17T11:04:30;94942.69;;;12.27;100.00
6132;BME280;3097;42.692;23.278;2022-12-17T11:07:19;94913.59;;;12.32;100.00
6132;BME280;3097;42.692;23.278;2022-12-17T11:10:05;94915.25;;;12.38;100.00
6132;BME280;3097;42.692;23.278;2022-12-17T11:13:01;94925.22;;;12.46;100.00
6132;BME280;3097;42.692;23.278;2022-12-17T11:15:51;94922.91;;;12.61;100.00
6132;BME280;3097;42.692;23.278;2022-12-17T11:18:48;94917.88;;;12.71;100.00
6132;BME280;3097;42.692;23.278;2022-12-17T11:21:39;94928.75;;;12.85;100.00
6132;BME280;3097;42.692;23.278;2022-12-17T11:24:27;94943.63;;;12.95;100.00
6132;BME280;3097;42.692;23.278;2022-12-17T11:27:18;94954.09;;;13.00;100.00
6132;BME280;3097;42.692;23.278;2022-12-17T11:30:11;94971.94;;;13.13;100.00
6132;BME280;3097;42.692;23.278;2022-12-17T11:35:51;95000.41;;;13.13;100.00
6132;BME280;3097;42.692;23.278;2022-12-17T11:38:38;95007.22;;;13.19;100.00
6132;BME280;3097;42.692;23.278;2022-12-17T11:47:55;95005.97;;;13.38;100.00
6132;BME280;3097;42.692;23.278;2022-12-17T11:51:04;95000.50;;;13.35;100.00
6132;BME280;3097;42.692;23.278;2022-12-17T11:59:59;95005.81;;;13.28;99.87
6132;BME280;3097;42.692;23.278;2022-12-17T12:05:46;94990.13;;;13.18;100.00
6132;BME280;3097;42.692;23.278;2022-12-17T12:08:58;95013.97;;;13.20;100.00
6132;BME280;3097;42.692;23.278;2022-12-17T12:15:37;95017.44;;;13.42;100.00
6132;BME280;3097;42.692;23.278;2022-12-17T12:27:22;95011.72;;;13.12;100.00
6132;BME280;3097;42.692;23.278;2022-12-17T12:30:20;95011.09;;;13.05;100.00
6132;BME280;3097;42.692;23.278;2022-12-17T12:33:20;95013.75;;;13.10;100.00
6132;BME280;3097;42.692;23.278;2022-12-17T12:36:09;95004.44;;;13.09;100.00
6132;BME280;3097;42.692;23.278;2022-12-17T12:39:01;94999.00;;;13.22;100.00
6132;BME280;3097;42.692;23.278;2022-12-17T12:41:53;95009.28;;;13.34;100.00
6132;BME280;3097;42.692;23.278;2022-12-17T12:44:54;94993.44;;;13.30;100.00
6132;BME280;3097;42.692;23.278;2022-12-17T12:51:20;95005.50;;;13.41;100.00
6132;BME280;3097;42.692;23.278;2022-12-17T12:54:29;94995.63;;;13.38;100.00
6132;BME280;3097;42.692;23.278;2022-12-17T12:57:34;95011.63;;;13.35;100.00
6132;BME280;3097;42.692;23.278;2022-12-17T13:03:15;95005.72;;;13.23;100.00
6132;BME280;3097;42.692;23.278;2022-12-17T13:06:00;95027.84;;;13.31;100.00
6132;BME280;3097;42.692;23.278;2022-12-17T13:08:25;95026.78;;;13.27;100.00
6132;BME280;3097;42.692;23.278;2022-12-17T13:10:52;95006.94;;;13.15;100.00
6132;BME280;3097;42.692;23.278;2022-12-17T13:15:50;95016.50;;;13.03;100.00
6132;BME280;3097;42.692;23.278;2022-12-17T13:18:36;94992.91;;;13.00;100.00
6132;BME280;3097;42.692;23.278;2022-12-17T13:21:25;95005.88;;;12.88;100.00
6132;BME280;3097;42.692;23.278;2022-12-17T13:23:51;94978.41;;;12.70;100.00
6132;BME280;3097;42.692;23.278;2022-12-17T13:31:39;95024.13;;;12.82;100.00
6132;BME280;3097;42.692;23.278;2022-12-17T13:37:13;95032.88;;;12.92;100.00
6132;BME280;3097;42.692;23.278;2022-12-17T13:42:45;95043.81;;;12.83;100.00
6132;BME280;3097;42.692;23.278;2022-12-17T13:45:16;95049.78;;;12.83;100.00
6132;BME280;3097;42.692;23.278;2022-12-17T13:47:42;95043.91;;;12.88;100.00
6132;BME280;3097;42.692;23.278;2022-12-17T13:50:33;95040.66;;;12.80;100.00
6132;BME280;3097;42.692;23.278;2022-12-17T13:53:08;95047.97;;;12.84;100.00
6132;BME280;3097;42.692;23.278;2022-12-17T13:55:34;95036.00;;;12.94;100.00
6132;BME280;3097;42.692;23.278;2022-12-17T13:57:59;95037.50;;;12.78;100.00
6132;BME280;3097;42.692;23.278;2022-12-17T14:00:29;95043.03;;;12.82;100.00
6132;BME280;3097;42.692;23.278;2022-12-17T14:02:55;95038.56;;;12.77;100.00
6132;BME280;3097;42.692;23.278;2022-12-17T14:05:32;95039.09;;;12.79;100.00
6132;BME280;3097;42.692;23.278;2022-12-17T14:08:02;95045.94;;;12.86;100.00
6132;BME280;3097;42.692;23.278;2022-12-17T14:10:30;95035.50;;;12.80;100.00
6132;BME280;3097;42.692;23.278;2022-12-17T14:13:14;95027.13;;;12.62;100.00
6132;BME280;3097;42.692;23.278;2022-12-17T14:15:48;95056.19;;;12.80;100.00
6132;BME280;3097;42.692;23.278;2022-12-17T14:18:16;95065.09;;;12.73;100.00
6132;BME280;3097;42.692;23.278;2022-12-17T14:20:43;95075.09;;;12.81;100.00
6132;BME280;3097;42.692;23.278;2022-12-17T14:23:19;95064.97;;;12.79;100.00
6132;BME280;3097;42.692;23.278;2022-12-17T14:25:46;95060.72;;;12.73;100.00
6132;BME280;3097;42.692;23.278;2022-12-17T14:28:20;95075.31;;;12.79;100.00
6132;BME280;3097;42.692;23.278;2022-12-17T14:30:46;95058.97;;;12.62;100.00
6132;BME280;3097;42.692;23.278;2022-12-17T14:33:27;95075.94;;;12.58;100.00
6132;BME280;3097;42.692;23.278;2022-12-17T14:35:54;95073.81;;;12.55;100.00
6132;BME280;3097;42.692;23.278;2022-12-17T14:38:24;95063.69;;;12.42;100.00
6132;BME280;3097;42.692;23.278;2022-12-17T14:40:50;95072.47;;;12.53;100.00
6132;BME280;3097;42.692;23.278;2022-12-17T14:43:15;95095.38;;;12.49;100.00
6132;BME280;3097;42.692;23.278;2022-12-17T14:46:11;95100.56;;;12.49;100.00
6132;BME280;3097;42.692;23.278;2022-12-17T14:48:55;95072.28;;;12.31;100.00
6132;BME280;3097;42.692;23.278;2022-12-17T14:51:41;95096.66;;;12.47;100.00
6132;BME280;3097;42.692;23.278;2022-12-17T14:56:39;95107.66;;;12.42;100.00
6132;BME280;3097;42.692;23.278;2022-12-17T14:59:24;95102.63;;;12.24;100.00
6132;BME280;3097;42.692;23.278;2022-12-17T15:01:52;95103.16;;;12.37;100.00
6132;BME280;3097;42.692;23.278;2022-12-17T15:04:18;95096.97;;;12.27;100.00
6132;BME280;3097;42.692;23.278;2022-12-17T15:06:44;95105.75;;;12.26;100.00
6132;BME280;3097;42.692;23.278;2022-12-17T15:09:11;95101.84;;;12.23;100.00
6132;BME280;3097;42.692;23.278;2022-12-17T15:11:37;95101.81;;;12.00;100.00
6132;BME280;3097;42.692;23.278;2022-12-17T15:14:02;95113.28;;;12.04;100.00
6132;BME280;3097;42.692;23.278;2022-12-17T15:16:28;95093.38;;;11.81;100.00
6132;BME280;3097;42.692;23.278;2022-12-17T15:18:53;95117.22;;;11.95;100.00
6132;BME280;3097;42.692;23.278;2022-12-17T15:21:19;95122.03;;;11.91;100.00
6132;BME280;3097;42.692;23.278;2022-12-17T15:23:48;95134.16;;;11.91;100.00
6132;BME280;3097;42.692;23.278;2022-12-17T15:26:14;95142.34;;;11.88;100.00
6132;BME280;3097;42.692;23.278;2022-12-17T15:28:40;95137.16;;;11.76;100.00
6132;BME280;3097;42.692;23.278;2022-12-17T15:31:11;95125.88;;;11.59;100.00
6132;BME280;3097;42.692;23.278;2022-12-17T15:33:37;95139.34;;;11.61;100.00
6132;BME280;3097;42.692;23.278;2022-12-17T15:36:03;95138.59;;;11.72;100.00
6132;BME280;3097;42.692;23.278;2022-12-17T15:38:28;95128.75;;;11.51;100.00
6132;BME280;3097;42.692;23.278;2022-12-17T15:40:54;95134.59;;;11.46;100.00